Home   Weather   Qatar   Doha   Past weeks
Flag for Qatar

Past Weather in Doha, Qatar — September 2020

Currently: 86 °F. Passing clouds. (Weather station: Doha International Airport, Qatar). See more current weather

September 2020 Weather in Doha — Graph

°F

High & Low Weather Summary for September 2020

 TemperatureHumidityPressure
High109 °F (Sep 3, 9:00 am)89% (Sep 3, 2:00 am)29.77 "Hg (Sep 3, 2:00 am)
Low81 °F (Sep 26, 5:30 am)9% (Sep 19, 1:30 pm)29.56 "Hg (Sep 1, 12:00 am)
Average95 °F57%29.65 "Hg
* Reported Sep 1 12:00 am — Sep 30 11:30 pm, Doha. Weather by CustomWeather, © 2022

Note: Actual official high and low records may vary slightly from our data, if they occured in-between our weather recording intervals... More about our weather records

Doha Weather History for September 1, 2020

Scroll right to see more
 ConditionsComfort  
Time TempWeatherWind HumidityBarometerVisibility
12:00 am
Tue, Sep 1
91 °FClear.2 mph80%29.56 "Hg10 mi
12:30 am91 °FPassing clouds.3 mph80%29.56 "HgN/A
1:00 am91 °FPassing clouds.3 mph84%29.56 "HgN/A
1:30 am91 °FPassing clouds.6 mph84%29.56 "HgN/A
2:00 am91 °FClear.6 mph80%29.56 "Hg10 mi
2:30 am91 °FPassing clouds.5 mph80%29.56 "HgN/A
3:00 am91 °FPassing clouds.3 mph80%29.56 "HgN/A
3:30 am91 °FClear.3 mph75%29.56 "Hg10 mi
4:00 am91 °FClear.6 mph75%29.59 "Hg10 mi
4:30 am91 °FPassing clouds.3 mph75%29.59 "HgN/A
5:00 am91 °FClear.6 mph75%29.59 "Hg10 mi
5:30 am91 °FSunny.7 mph75%29.62 "Hg10 mi
6:00 am91 °FPassing clouds.7 mph75%29.62 "HgN/A
6:30 am93 °FPassing clouds.8 mph71%29.65 "HgN/A
7:00 am93 °FPassing clouds.10 mph71%29.65 "HgN/A
7:30 am95 °FPassing clouds.9 mph53%29.65 "HgN/A
8:30 am99 °FPassing clouds.12 mph42%29.68 "HgN/A
9:00 am99 °FSunny.12 mph44%29.68 "Hg10 mi
9:30 am100 °FSunny.10 mph42%29.68 "Hg10 mi
10:00 am100 °FSunny.13 mph42%29.68 "Hg10 mi
10:30 am104 °FSunny.13 mph29%29.68 "Hg10 mi
11:00 am102 °FSunny.14 mph37%29.65 "Hg10 mi
11:30 am104 °FSunny.14 mph33%29.65 "Hg10 mi
12:00 pm106 °FSunny.12 mph26%29.65 "Hg10 mi
12:30 pm104 °FSunny.12 mph35%29.65 "Hg10 mi
1:00 pm102 °FSunny.10 mph42%29.62 "Hg10 mi
1:30 pm102 °FPassing clouds.10 mph40%29.62 "HgN/A
2:00 pm102 °FClear.9 mph42%29.62 "Hg4 mi
2:30 pm102 °FClear.12 mph45%29.59 "Hg4 mi
3:00 pm104 °FClear.10 mph26%29.59 "Hg4 mi
3:30 pm102 °FClear.9 mph42%29.59 "Hg4 mi
4:00 pm100 °FClear.10 mph47%29.59 "Hg4 mi
4:30 pm100 °FClear.9 mph50%29.59 "Hg5 mi
5:00 pm99 °FClear.10 mph53%29.59 "Hg6 mi
5:30 pm97 °FClear.9 mph53%29.59 "Hg6 mi
6:00 pm95 °FClear.7 mph60%29.59 "Hg6 mi
6:30 pm95 °FClear.9 mph63%29.62 "Hg10 mi
7:00 pm93 °FClear.8 mph67%29.62 "Hg10 mi
7:30 pm93 °FClear.7 mph67%29.62 "Hg10 mi
8:00 pm93 °FClear.8 mph71%29.65 "Hg10 mi
8:30 pm93 °FClear.8 mph67%29.65 "Hg10 mi
9:00 pm93 °FClear.7 mph71%29.65 "Hg10 mi
9:30 pm93 °FClear.6 mph67%29.65 "Hg10 mi
10:00 pm93 °FPassing clouds.3 mph67%29.65 "HgN/A
10:30 pm93 °FClear.6 mph71%29.65 "Hg10 mi
11:00 pm93 °FClear.3 mph67%29.65 "Hg10 mi
11:30 pm91 °FClear.5 mph71%29.65 "Hg10 mi
Weather by CustomWeather, © 2022

See weather overview